sensor_id;sensor_type;location;lat;lon;timestamp;P1;durP1;ratioP1;P2;durP2;ratioP2
22019;SDS011;51298;53.362;-1.518;2023-07-20T00:00:34;2.70;;;1.10;;
22019;SDS011;51298;53.362;-1.518;2023-07-20T00:03:19;1.88;;;1.00;;
22019;SDS011;51298;53.362;-1.518;2023-07-20T00:06:07;1.73;;;0.95;;
22019;SDS011;51298;53.362;-1.518;2023-07-20T00:08:51;5.55;;;1.25;;
22019;SDS011;51298;53.362;-1.518;2023-07-20T00:11:37;5.50;;;1.13;;
22019;SDS011;51298;53.362;-1.518;2023-07-20T00:14:22;1.98;;;1.00;;
22019;SDS011;51298;53.362;-1.518;2023-07-20T00:17:06;1.38;;;0.80;;
22019;SDS011;51298;53.362;-1.518;2023-07-20T00:19:50;4.68;;;1.17;;
22019;SDS011;51298;53.362;-1.518;2023-07-20T00:22:35;4.80;;;1.00;;
22019;SDS011;51298;53.362;-1.518;2023-07-20T00:25:19;3.00;;;1.10;;
22019;SDS011;51298;53.362;-1.518;2023-07-20T00:28:03;2.08;;;1.20;;
22019;SDS011;51298;53.362;-1.518;2023-07-20T00:30:48;3.72;;;0.90;;
22019;SDS011;51298;53.362;-1.518;2023-07-20T00:33:35;2.92;;;1.25;;
22019;SDS011;51298;53.362;-1.518;2023-07-20T00:36:19;1.75;;;1.17;;
22019;SDS011;51298;53.362;-1.518;2023-07-20T00:39:03;4.13;;;0.98;;
22019;SDS011;51298;53.362;-1.518;2023-07-20T00:41:51;2.58;;;1.38;;
22019;SDS011;51298;53.362;-1.518;2023-07-20T00:44:35;2.83;;;1.65;;
22019;SDS011;51298;53.362;-1.518;2023-07-20T00:47:20;3.40;;;1.20;;
22019;SDS011;51298;53.362;-1.518;2023-07-20T00:50:04;5.07;;;1.30;;
22019;SDS011;51298;53.362;-1.518;2023-07-20T00:52:49;5.65;;;1.15;;
22019;SDS011;51298;53.362;-1.518;2023-07-20T00:55:36;5.85;;;1.45;;
22019;SDS011;51298;53.362;-1.518;2023-07-20T00:58:20;3.92;;;1.15;;
22019;SDS011;51298;53.362;-1.518;2023-07-20T01:01:11;6.50;;;2.30;;
22019;SDS011;51298;53.362;-1.518;2023-07-20T01:03:56;2.10;;;1.10;;
22019;SDS011;51298;53.362;-1.518;2023-07-20T01:06:53;2.08;;;0.93;;
22019;SDS011;51298;53.362;-1.518;2023-07-20T01:13:00;2.60;;;1.23;;
22019;SDS011;51298;53.362;-1.518;2023-07-20T01:15:49;4.30;;;1.20;;
22019;SDS011;51298;53.362;-1.518;2023-07-20T01:32:02;2.10;;;1.10;;
22019;SDS011;51298;53.362;-1.518;2023-07-20T01:34:49;4.47;;;1.30;;
22019;SDS011;51298;53.362;-1.518;2023-07-20T01:37:38;5.05;;;1.92;;
22019;SDS011;51298;53.362;-1.518;2023-07-20T01:40:25;2.38;;;1.10;;
22019;SDS011;51298;53.362;-1.518;2023-07-20T01:43:10;3.15;;;1.30;;
22019;SDS011;51298;53.362;-1.518;2023-07-20T01:45:56;3.72;;;1.27;;
22019;SDS011;51298;53.362;-1.518;2023-07-20T01:48:40;3.65;;;1.70;;
22019;SDS011;51298;53.362;-1.518;2023-07-20T01:51:26;5.43;;;1.48;;
22019;SDS011;51298;53.362;-1.518;2023-07-20T01:54:10;2.05;;;1.10;;
22019;SDS011;51298;53.362;-1.518;2023-07-20T01:56:55;2.08;;;1.30;;
22019;SDS011;51298;53.362;-1.518;2023-07-20T01:59:40;4.68;;;1.38;;
22019;SDS011;51298;53.362;-1.518;2023-07-20T02:02:26;2.70;;;1.60;;
22019;SDS011;51298;53.362;-1.518;2023-07-20T02:05:12;2.72;;;1.38;;
22019;SDS011;51298;53.362;-1.518;2023-07-20T02:07:56;2.05;;;1.10;;
22019;SDS011;51298;53.362;-1.518;2023-07-20T02:10:40;2.33;;;1.10;;
22019;SDS011;51298;53.362;-1.518;2023-07-20T02:13:24;2.75;;;1.60;;
22019;SDS011;51298;53.362;-1.518;2023-07-20T02:16:08;2.53;;;1.48;;
22019;SDS011;51298;53.362;-1.518;2023-07-20T02:18:53;1.42;;;0.93;;
22019;SDS011;51298;53.362;-1.518;2023-07-20T02:21:37;2.38;;;1.20;;
22019;SDS011;51298;53.362;-1.518;2023-07-20T02:24:22;3.92;;;1.13;;
22019;SDS011;51298;53.362;-1.518;2023-07-20T02:27:06;5.05;;;1.30;;
22019;SDS011;51298;53.362;-1.518;2023-07-20T02:29:51;6.28;;;1.20;;
22019;SDS011;51298;53.362;-1.518;2023-07-20T02:32:35;2.20;;;1.13;;
22019;SDS011;51298;53.362;-1.518;2023-07-20T02:35:20;3.83;;;1.27;;
22019;SDS011;51298;53.362;-1.518;2023-07-20T02:38:04;2.20;;;1.40;;
22019;SDS011;51298;53.362;-1.518;2023-07-20T02:40:50;5.32;;;1.55;;
22019;SDS011;51298;53.362;-1.518;2023-07-20T02:43:35;2.60;;;1.30;;
22019;SDS011;51298;53.362;-1.518;2023-07-20T02:46:19;1.98;;;1.02;;
22019;SDS011;51298;53.362;-1.518;2023-07-20T02:49:03;1.52;;;1.10;;
22019;SDS011;51298;53.362;-1.518;2023-07-20T02:51:51;3.08;;;1.10;;
22019;SDS011;51298;53.362;-1.518;2023-07-20T02:54:35;3.05;;;1.20;;
22019;SDS011;51298;53.362;-1.518;2023-07-20T02:57:19;1.45;;;1.02;;
22019;SDS011;51298;53.362;-1.518;2023-07-20T03:00:04;2.58;;;1.25;;
22019;SDS011;51298;53.362;-1.518;2023-07-20T03:02:50;2.30;;;1.30;;
22019;SDS011;51298;53.362;-1.518;2023-07-20T03:05:36;3.00;;;1.40;;
22019;SDS011;51298;53.362;-1.518;2023-07-20T03:08:24;5.28;;;1.40;;
22019;SDS011;51298;53.362;-1.518;2023-07-20T03:11:08;3.03;;;1.33;;
22019;SDS011;51298;53.362;-1.518;2023-07-20T03:13:52;3.45;;;1.70;;
22019;SDS011;51298;53.362;-1.518;2023-07-20T03:16:36;4.00;;;1.17;;
22019;SDS011;51298;53.362;-1.518;2023-07-20T03:19:21;2.45;;;1.30;;
22019;SDS011;51298;53.362;-1.518;2023-07-20T03:22:05;2.10;;;1.38;;
22019;SDS011;51298;53.362;-1.518;2023-07-20T03:24:50;2.22;;;1.27;;
22019;SDS011;51298;53.362;-1.518;2023-07-20T03:27:35;2.03;;;1.30;;
22019;SDS011;51298;53.362;-1.518;2023-07-20T03:30:19;6.22;;;1.63;;
22019;SDS011;51298;53.362;-1.518;2023-07-20T03:33:03;3.28;;;1.35;;
22019;SDS011;51298;53.362;-1.518;2023-07-20T03:35:49;3.63;;;1.40;;
22019;SDS011;51298;53.362;-1.518;2023-07-20T03:38:33;2.97;;;1.23;;
22019;SDS011;51298;53.362;-1.518;2023-07-20T03:41:18;2.38;;;1.00;;
22019;SDS011;51298;53.362;-1.518;2023-07-20T03:44:03;3.78;;;1.20;;
22019;SDS011;51298;53.362;-1.518;2023-07-20T03:46:48;1.75;;;1.08;;
22019;SDS011;51298;53.362;-1.518;2023-07-20T03:49:35;2.42;;;1.17;;
22019;SDS011;51298;53.362;-1.518;2023-07-20T03:52:19;5.30;;;1.60;;
22019;SDS011;51298;53.362;-1.518;2023-07-20T03:55:04;3.35;;;1.70;;
22019;SDS011;51298;53.362;-1.518;2023-07-20T03:57:49;3.63;;;1.35;;
22019;SDS011;51298;53.362;-1.518;2023-07-20T04:00:34;3.53;;;1.45;;
22019;SDS011;51298;53.362;-1.518;2023-07-20T04:03:19;2.30;;;1.35;;
22019;SDS011;51298;53.362;-1.518;2023-07-20T04:06:04;2.17;;;1.05;;
22019;SDS011;51298;53.362;-1.518;2023-07-20T04:08:48;2.88;;;1.20;;
22019;SDS011;51298;53.362;-1.518;2023-07-20T04:11:32;4.75;;;1.63;;
22019;SDS011;51298;53.362;-1.518;2023-07-20T04:14:17;5.95;;;1.35;;
22019;SDS011;51298;53.362;-1.518;2023-07-20T04:17:01;6.50;;;1.45;;
22019;SDS011;51298;53.362;-1.518;2023-07-20T04:19:45;2.38;;;1.30;;
22019;SDS011;51298;53.362;-1.518;2023-07-20T04:22:30;3.50;;;1.75;;
22019;SDS011;51298;53.362;-1.518;2023-07-20T04:25:14;5.30;;;1.30;;
22019;SDS011;51298;53.362;-1.518;2023-07-20T04:27:59;3.80;;;1.80;;
22019;SDS011;51298;53.362;-1.518;2023-07-20T04:30:43;5.40;;;1.70;;
22019;SDS011;51298;53.362;-1.518;2023-07-20T04:33:27;6.78;;;1.58;;
22019;SDS011;51298;53.362;-1.518;2023-07-20T04:36:12;7.75;;;2.08;;
22019;SDS011;51298;53.362;-1.518;2023-07-20T04:39:00;4.10;;;1.40;;
22019;SDS011;51298;53.362;-1.518;2023-07-20T04:41:51;5.35;;;1.65;;
22019;SDS011;51298;53.362;-1.518;2023-07-20T04:44:36;5.55;;;1.85;;
22019;SDS011;51298;53.362;-1.518;2023-07-20T04:47:20;5.00;;;1.98;;
22019;SDS011;51298;53.362;-1.518;2023-07-20T04:50:06;4.28;;;1.88;;
22019;SDS011;51298;53.362;-1.518;2023-07-20T04:52:51;3.83;;;1.70;;
22019;SDS011;51298;53.362;-1.518;2023-07-20T04:55:40;4.63;;;1.73;;
22019;SDS011;51298;53.362;-1.518;2023-07-20T04:58:27;4.00;;;1.85;;
22019;SDS011;51298;53.362;-1.518;2023-07-20T05:01:13;3.13;;;1.45;;
22019;SDS011;51298;53.362;-1.518;2023-07-20T05:03:57;3.40;;;1.50;;
22019;SDS011;51298;53.362;-1.518;2023-07-20T05:06:41;3.97;;;1.60;;
22019;SDS011;51298;53.362;-1.518;2023-07-20T05:09:26;4.78;;;1.70;;
22019;SDS011;51298;53.362;-1.518;2023-07-20T05:12:10;6.30;;;2.15;;
22019;SDS011;51298;53.362;-1.518;2023-07-20T05:14:56;6.18;;;2.05;;
22019;SDS011;51298;53.362;-1.518;2023-07-20T05:17:41;4.63;;;1.80;;
22019;SDS011;51298;53.362;-1.518;2023-07-20T05:20:25;7.70;;;2.95;;
22019;SDS011;51298;53.362;-1.518;2023-07-20T05:23:10;6.50;;;2.10;;
22019;SDS011;51298;53.362;-1.518;2023-07-20T05:25:55;3.85;;;1.80;;
22019;SDS011;51298;53.362;-1.518;2023-07-20T05:28:40;5.65;;;2.20;;
22019;SDS011;51298;53.362;-1.518;2023-07-20T05:31:24;9.40;;;2.10;;
22019;SDS011;51298;53.362;-1.518;2023-07-20T05:34:10;8.85;;;1.92;;
22019;SDS011;51298;53.362;-1.518;2023-07-20T05:36:54;4.45;;;2.00;;
22019;SDS011;51298;53.362;-1.518;2023-07-20T05:39:39;4.80;;;1.90;;
22019;SDS011;51298;53.362;-1.518;2023-07-20T05:42:23;5.63;;;1.90;;
22019;SDS011;51298;53.362;-1.518;2023-07-20T05:45:08;5.40;;;1.67;;
22019;SDS011;51298;53.362;-1.518;2023-07-20T05:47:53;4.20;;;2.17;;
22019;SDS011;51298;53.362;-1.518;2023-07-20T05:50:37;6.18;;;2.38;;
22019;SDS011;51298;53.362;-1.518;2023-07-20T05:53:26;9.65;;;1.85;;
22019;SDS011;51298;53.362;-1.518;2023-07-20T05:56:13;3.97;;;2.00;;
22019;SDS011;51298;53.362;-1.518;2023-07-20T05:58:58;7.00;;;2.08;;
22019;SDS011;51298;53.362;-1.518;2023-07-20T06:01:43;6.47;;;2.20;;
22019;SDS011;51298;53.362;-1.518;2023-07-20T06:04:28;3.97;;;2.08;;
22019;SDS011;51298;53.362;-1.518;2023-07-20T06:07:12;6.30;;;2.00;;
22019;SDS011;51298;53.362;-1.518;2023-07-20T06:09:59;4.68;;;2.33;;
22019;SDS011;51298;53.362;-1.518;2023-07-20T06:12:43;7.70;;;2.47;;
22019;SDS011;51298;53.362;-1.518;2023-07-20T06:15:31;6.45;;;2.63;;
22019;SDS011;51298;53.362;-1.518;2023-07-20T06:18:21;4.32;;;2.03;;
22019;SDS011;51298;53.362;-1.518;2023-07-20T06:21:09;7.53;;;2.60;;
22019;SDS011;51298;53.362;-1.518;2023-07-20T06:23:54;11.30;;;2.70;;
22019;SDS011;51298;53.362;-1.518;2023-07-20T06:26:41;6.05;;;2.42;;
22019;SDS011;51298;53.362;-1.518;2023-07-20T06:29:27;8.77;;;3.10;;
22019;SDS011;51298;53.362;-1.518;2023-07-20T06:32:11;7.40;;;2.50;;
22019;SDS011;51298;53.362;-1.518;2023-07-20T06:35:00;6.03;;;2.63;;
22019;SDS011;51298;53.362;-1.518;2023-07-20T06:37:44;5.65;;;2.90;;
22019;SDS011;51298;53.362;-1.518;2023-07-20T06:40:30;6.25;;;2.70;;
22019;SDS011;51298;53.362;-1.518;2023-07-20T06:43:14;6.30;;;2.83;;
22019;SDS011;51298;53.362;-1.518;2023-07-20T06:45:59;8.18;;;2.83;;
22019;SDS011;51298;53.362;-1.518;2023-07-20T06:48:46;8.40;;;2.90;;
22019;SDS011;51298;53.362;-1.518;2023-07-20T06:51:30;6.88;;;2.40;;
22019;SDS011;51298;53.362;-1.518;2023-07-20T06:54:14;6.78;;;2.88;;
22019;SDS011;51298;53.362;-1.518;2023-07-20T06:56:59;5.85;;;2.40;;
22019;SDS011;51298;53.362;-1.518;2023-07-20T06:59:43;8.25;;;3.03;;
22019;SDS011;51298;53.362;-1.518;2023-07-20T07:02:28;5.93;;;2.75;;
22019;SDS011;51298;53.362;-1.518;2023-07-20T07:05:12;6.60;;;2.45;;
22019;SDS011;51298;53.362;-1.518;2023-07-20T07:07:58;5.53;;;2.97;;
22019;SDS011;51298;53.362;-1.518;2023-07-20T07:10:43;8.85;;;2.92;;
22019;SDS011;51298;53.362;-1.518;2023-07-20T07:13:27;7.03;;;3.58;;
22019;SDS011;51298;53.362;-1.518;2023-07-20T07:16:11;8.20;;;3.42;;
22019;SDS011;51298;53.362;-1.518;2023-07-20T07:18:56;6.82;;;3.15;;
22019;SDS011;51298;53.362;-1.518;2023-07-20T07:21:40;5.75;;;2.65;;
22019;SDS011;51298;53.362;-1.518;2023-07-20T07:24:25;9.48;;;3.55;;
22019;SDS011;51298;53.362;-1.518;2023-07-20T07:27:12;10.20;;;3.35;;
22019;SDS011;51298;53.362;-1.518;2023-07-20T07:29:59;8.32;;;3.08;;
22019;SDS011;51298;53.362;-1.518;2023-07-20T07:32:44;7.63;;;3.28;;
22019;SDS011;51298;53.362;-1.518;2023-07-20T07:35:28;9.05;;;3.10;;
22019;SDS011;51298;53.362;-1.518;2023-07-20T07:38:12;7.03;;;3.20;;
22019;SDS011;51298;53.362;-1.518;2023-07-20T07:40:57;10.65;;;3.42;;
22019;SDS011;51298;53.362;-1.518;2023-07-20T07:43:42;10.48;;;3.33;;
22019;SDS011;51298;53.362;-1.518;2023-07-20T07:46:26;7.10;;;2.85;;
22019;SDS011;51298;53.362;-1.518;2023-07-20T07:49:10;10.75;;;3.17;;
22019;SDS011;51298;53.362;-1.518;2023-07-20T07:51:54;6.00;;;2.65;;
22019;SDS011;51298;53.362;-1.518;2023-07-20T07:54:39;5.75;;;2.67;;
22019;SDS011;51298;53.362;-1.518;2023-07-20T07:57:23;5.70;;;2.85;;
22019;SDS011;51298;53.362;-1.518;2023-07-20T08:00:07;6.60;;;2.80;;
22019;SDS011;51298;53.362;-1.518;2023-07-20T08:02:55;5.82;;;3.10;;
22019;SDS011;51298;53.362;-1.518;2023-07-20T08:05:39;7.30;;;2.78;;
22019;SDS011;51298;53.362;-1.518;2023-07-20T08:08:24;5.15;;;2.63;;
22019;SDS011;51298;53.362;-1.518;2023-07-20T08:11:08;7.55;;;2.63;;
22019;SDS011;51298;53.362;-1.518;2023-07-20T08:13:53;7.10;;;3.03;;
22019;SDS011;51298;53.362;-1.518;2023-07-20T08:16:37;6.22;;;2.90;;
22019;SDS011;51298;53.362;-1.518;2023-07-20T08:19:21;6.25;;;2.50;;
22019;SDS011;51298;53.362;-1.518;2023-07-20T08:22:06;9.20;;;2.50;;
22019;SDS011;51298;53.362;-1.518;2023-07-20T08:24:50;5.85;;;2.97;;
22019;SDS011;51298;53.362;-1.518;2023-07-20T08:27:34;5.93;;;2.38;;
22019;SDS011;51298;53.362;-1.518;2023-07-20T08:30:21;9.90;;;3.00;;
22019;SDS011;51298;53.362;-1.518;2023-07-20T08:33:07;6.97;;;2.95;;
22019;SDS011;51298;53.362;-1.518;2023-07-20T08:35:53;7.65;;;2.50;;
22019;SDS011;51298;53.362;-1.518;2023-07-20T08:38:37;5.15;;;2.45;;
22019;SDS011;51298;53.362;-1.518;2023-07-20T08:41:22;10.07;;;2.40;;
22019;SDS011;51298;53.362;-1.518;2023-07-20T08:44:06;12.52;;;3.30;;
22019;SDS011;51298;53.362;-1.518;2023-07-20T08:46:51;5.25;;;2.45;;
22019;SDS011;51298;53.362;-1.518;2023-07-20T08:49:36;6.70;;;2.70;;
22019;SDS011;51298;53.362;-1.518;2023-07-20T08:52:23;6.57;;;2.70;;
22019;SDS011;51298;53.362;-1.518;2023-07-20T08:55:07;5.97;;;2.65;;
22019;SDS011;51298;53.362;-1.518;2023-07-20T08:57:55;5.25;;;2.63;;
22019;SDS011;51298;53.362;-1.518;2023-07-20T09:00:41;5.37;;;2.60;;
22019;SDS011;51298;53.362;-1.518;2023-07-20T09:03:25;6.43;;;2.88;;
22019;SDS011;51298;53.362;-1.518;2023-07-20T09:06:10;5.25;;;2.97;;
22019;SDS011;51298;53.362;-1.518;2023-07-20T09:08:54;5.72;;;2.78;;
22019;SDS011;51298;53.362;-1.518;2023-07-20T09:11:40;4.95;;;2.70;;
22019;SDS011;51298;53.362;-1.518;2023-07-20T09:14:24;7.30;;;3.53;;
22019;SDS011;51298;53.362;-1.518;2023-07-20T09:17:08;7.65;;;3.30;;
22019;SDS011;51298;53.362;-1.518;2023-07-20T09:19:57;4.82;;;2.63;;
22019;SDS011;51298;53.362;-1.518;2023-07-20T09:22:42;10.25;;;2.95;;
22019;SDS011;51298;53.362;-1.518;2023-07-20T09:25:26;5.10;;;2.13;;
22019;SDS011;51298;53.362;-1.518;2023-07-20T09:28:11;5.47;;;2.80;;
22019;SDS011;51298;53.362;-1.518;2023-07-20T09:30:56;7.10;;;3.40;;
22019;SDS011;51298;53.362;-1.518;2023-07-20T09:33:41;4.80;;;2.78;;
22019;SDS011;51298;53.362;-1.518;2023-07-20T09:36:26;7.22;;;3.30;;
22019;SDS011;51298;53.362;-1.518;2023-07-20T09:39:11;5.22;;;2.65;;
22019;SDS011;51298;53.362;-1.518;2023-07-20T09:41:59;6.40;;;2.55;;
22019;SDS011;51298;53.362;-1.518;2023-07-20T09:44:45;6.78;;;3.08;;
22019;SDS011;51298;53.362;-1.518;2023-07-20T09:47:29;7.57;;;2.92;;
22019;SDS011;51298;53.362;-1.518;2023-07-20T09:50:14;9.70;;;3.17;;
22019;SDS011;51298;53.362;-1.518;2023-07-20T09:52:58;5.03;;;2.83;;
22019;SDS011;51298;53.362;-1.518;2023-07-20T09:55:46;5.07;;;2.53;;
22019;SDS011;51298;53.362;-1.518;2023-07-20T09:58:32;6.70;;;2.70;;
22019;SDS011;51298;53.362;-1.518;2023-07-20T10:01:20;9.40;;;2.78;;
22019;SDS011;51298;53.362;-1.518;2023-07-20T10:04:05;8.60;;;2.83;;
22019;SDS011;51298;53.362;-1.518;2023-07-20T10:06:53;11.32;;;3.38;;
22019;SDS011;51298;53.362;-1.518;2023-07-20T10:09:39;6.45;;;3.05;;
22019;SDS011;51298;53.362;-1.518;2023-07-20T10:12:25;7.00;;;2.88;;
22019;SDS011;51298;53.362;-1.518;2023-07-20T10:20:49;6.75;;;2.83;;
22019;SDS011;51298;53.362;-1.518;2023-07-20T10:23:35;11.18;;;3.08;;
22019;SDS011;51298;53.362;-1.518;2023-07-20T10:26:19;6.53;;;2.78;;
22019;SDS011;51298;53.362;-1.518;2023-07-20T10:29:04;6.60;;;3.03;;
22019;SDS011;51298;53.362;-1.518;2023-07-20T10:31:49;8.07;;;3.50;;
22019;SDS011;51298;53.362;-1.518;2023-07-20T10:34:34;6.30;;;3.53;;
22019;SDS011;51298;53.362;-1.518;2023-07-20T10:37:45;6.10;;;3.15;;
22019;SDS011;51298;53.362;-1.518;2023-07-20T10:40:40;8.68;;;3.25;;
22019;SDS011;51298;53.362;-1.518;2023-07-20T10:43:24;7.20;;;3.28;;
22019;SDS011;51298;53.362;-1.518;2023-07-20T10:46:10;6.57;;;3.10;;
22019;SDS011;51298;53.362;-1.518;2023-07-20T10:48:59;11.25;;;3.20;;
22019;SDS011;51298;53.362;-1.518;2023-07-20T10:51:48;8.60;;;2.92;;
22019;SDS011;51298;53.362;-1.518;2023-07-20T10:54:46;8.60;;;2.95;;
22019;SDS011;51298;53.362;-1.518;2023-07-20T10:57:32;11.02;;;3.63;;
22019;SDS011;51298;53.362;-1.518;2023-07-20T11:00:18;8.10;;;2.92;;
22019;SDS011;51298;53.362;-1.518;2023-07-20T11:03:08;6.50;;;2.55;;
22019;SDS011;51298;53.362;-1.518;2023-07-20T11:05:51;5.57;;;2.67;;
22019;SDS011;51298;53.362;-1.518;2023-07-20T11:08:42;7.32;;;3.10;;
22019;SDS011;51298;53.362;-1.518;2023-07-20T11:11:29;8.52;;;3.38;;
22019;SDS011;51298;53.362;-1.518;2023-07-20T11:14:24;5.55;;;2.80;;
22019;SDS011;51298;53.362;-1.518;2023-07-20T11:17:13;8.40;;;2.97;;
22019;SDS011;51298;53.362;-1.518;2023-07-20T11:19:59;5.47;;;2.50;;
22019;SDS011;51298;53.362;-1.518;2023-07-20T11:22:44;8.05;;;3.20;;
22019;SDS011;51298;53.362;-1.518;2023-07-20T11:25:37;5.25;;;2.72;;
22019;SDS011;51298;53.362;-1.518;2023-07-20T11:28:23;6.28;;;2.45;;
22019;SDS011;51298;53.362;-1.518;2023-07-20T11:31:07;4.80;;;2.72;;
22019;SDS011;51298;53.362;-1.518;2023-07-20T11:33:51;5.43;;;2.72;;
22019;SDS011;51298;53.362;-1.518;2023-07-20T11:36:35;6.80;;;2.78;;
22019;SDS011;51298;53.362;-1.518;2023-07-20T11:39:21;5.55;;;2.33;;
22019;SDS011;51298;53.362;-1.518;2023-07-20T11:42:06;8.18;;;2.70;;
22019;SDS011;51298;53.362;-1.518;2023-07-20T11:44:53;5.55;;;2.80;;
22019;SDS011;51298;53.362;-1.518;2023-07-20T11:47:40;6.72;;;3.15;;
22019;SDS011;51298;53.362;-1.518;2023-07-20T11:50:25;4.55;;;2.28;;
22019;SDS011;51298;53.362;-1.518;2023-07-20T11:53:09;5.78;;;2.42;;
22019;SDS011;51298;53.362;-1.518;2023-07-20T11:55:54;6.05;;;2.75;;
22019;SDS011;51298;53.362;-1.518;2023-07-20T11:58:43;6.70;;;2.85;;
22019;SDS011;51298;53.362;-1.518;2023-07-20T12:01:29;4.40;;;2.20;;
22019;SDS011;51298;53.362;-1.518;2023-07-20T12:04:15;5.45;;;2.67;;
22019;SDS011;51298;53.362;-1.518;2023-07-20T12:07:00;4.28;;;2.40;;
22019;SDS011;51298;53.362;-1.518;2023-07-20T12:09:44;5.40;;;2.85;;
22019;SDS011;51298;53.362;-1.518;2023-07-20T12:12:46;4.47;;;2.17;;
22019;SDS011;51298;53.362;-1.518;2023-07-20T12:15:30;5.90;;;2.17;;
22019;SDS011;51298;53.362;-1.518;2023-07-20T12:18:15;5.63;;;2.55;;
22019;SDS011;51298;53.362;-1.518;2023-07-20T12:20:59;6.47;;;2.47;;
22019;SDS011;51298;53.362;-1.518;2023-07-20T12:23:44;4.35;;;2.38;;
22019;SDS011;51298;53.362;-1.518;2023-07-20T12:26:29;4.60;;;2.25;;
22019;SDS011;51298;53.362;-1.518;2023-07-20T12:29:14;3.92;;;2.50;;
22019;SDS011;51298;53.362;-1.518;2023-07-20T12:31:58;3.75;;;2.30;;
22019;SDS011;51298;53.362;-1.518;2023-07-20T12:34:43;4.60;;;2.47;;
22019;SDS011;51298;53.362;-1.518;2023-07-20T12:37:27;6.55;;;2.47;;
22019;SDS011;51298;53.362;-1.518;2023-07-20T12:40:12;7.00;;;2.38;;
22019;SDS011;51298;53.362;-1.518;2023-07-20T12:42:56;5.25;;;2.22;;
22019;SDS011;51298;53.362;-1.518;2023-07-20T12:45:41;4.93;;;2.42;;
22019;SDS011;51298;53.362;-1.518;2023-07-20T12:48:26;5.88;;;2.17;;
22019;SDS011;51298;53.362;-1.518;2023-07-20T12:51:11;3.72;;;2.33;;
22019;SDS011;51298;53.362;-1.518;2023-07-20T12:53:55;2.55;;;1.60;;
22019;SDS011;51298;53.362;-1.518;2023-07-20T12:56:40;3.83;;;2.13;;
22019;SDS011;51298;53.362;-1.518;2023-07-20T12:59:24;3.80;;;2.15;;
22019;SDS011;51298;53.362;-1.518;2023-07-20T13:02:09;3.78;;;2.28;;
22019;SDS011;51298;53.362;-1.518;2023-07-20T13:04:53;3.88;;;2.03;;
22019;SDS011;51298;53.362;-1.518;2023-07-20T13:07:38;5.25;;;2.42;;
22019;SDS011;51298;53.362;-1.518;2023-07-20T13:10:23;5.15;;;1.92;;
22019;SDS011;51298;53.362;-1.518;2023-07-20T13:13:07;3.85;;;2.10;;
22019;SDS011;51298;53.362;-1.518;2023-07-20T13:15:52;4.13;;;1.77;;
22019;SDS011;51298;53.362;-1.518;2023-07-20T13:18:37;4.28;;;2.00;;
22019;SDS011;51298;53.362;-1.518;2023-07-20T13:21:21;5.40;;;2.30;;
22019;SDS011;51298;53.362;-1.518;2023-07-20T13:24:06;4.75;;;2.17;;
22019;SDS011;51298;53.362;-1.518;2023-07-20T13:26:51;4.22;;;1.75;;
22019;SDS011;51298;53.362;-1.518;2023-07-20T13:29:35;6.95;;;1.70;;
22019;SDS011;51298;53.362;-1.518;2023-07-20T13:32:20;4.85;;;2.13;;
22019;SDS011;51298;53.362;-1.518;2023-07-20T13:35:04;4.75;;;1.95;;
22019;SDS011;51298;53.362;-1.518;2023-07-20T13:37:49;3.08;;;1.52;;
22019;SDS011;51298;53.362;-1.518;2023-07-20T13:40:33;4.40;;;1.92;;
22019;SDS011;51298;53.362;-1.518;2023-07-20T13:43:17;3.22;;;1.75;;
22019;SDS011;51298;53.362;-1.518;2023-07-20T13:46:01;3.47;;;1.63;;
22019;SDS011;51298;53.362;-1.518;2023-07-20T13:48:46;2.90;;;1.67;;
22019;SDS011;51298;53.362;-1.518;2023-07-20T13:51:30;3.10;;;1.60;;
22019;SDS011;51298;53.362;-1.518;2023-07-20T13:54:15;5.78;;;1.83;;
22019;SDS011;51298;53.362;-1.518;2023-07-20T13:56:59;3.53;;;1.90;;
22019;SDS011;51298;53.362;-1.518;2023-07-20T13:59:44;3.22;;;1.80;;
22019;SDS011;51298;53.362;-1.518;2023-07-20T14:02:28;4.20;;;1.80;;
22019;SDS011;51298;53.362;-1.518;2023-07-20T14:05:12;2.78;;;1.75;;
22019;SDS011;51298;53.362;-1.518;2023-07-20T14:07:59;3.58;;;1.92;;
22019;SDS011;51298;53.362;-1.518;2023-07-20T14:10:43;3.10;;;1.70;;
22019;SDS011;51298;53.362;-1.518;2023-07-20T14:13:27;3.10;;;1.38;;
22019;SDS011;51298;53.362;-1.518;2023-07-20T14:16:11;4.25;;;1.77;;
22019;SDS011;51298;53.362;-1.518;2023-07-20T14:18:56;1.83;;;1.33;;
22019;SDS011;51298;53.362;-1.518;2023-07-20T14:21:40;3.17;;;1.80;;
22019;SDS011;51298;53.362;-1.518;2023-07-20T14:24:23;3.47;;;1.70;;
22019;SDS011;51298;53.362;-1.518;2023-07-20T14:27:07;2.28;;;1.38;;
22019;SDS011;51298;53.362;-1.518;2023-07-20T14:29:52;2.65;;;1.45;;
22019;SDS011;51298;53.362;-1.518;2023-07-20T14:32:38;3.40;;;1.83;;
22019;SDS011;51298;53.362;-1.518;2023-07-20T14:35:22;3.03;;;1.63;;
22019;SDS011;51298;53.362;-1.518;2023-07-20T14:38:06;3.15;;;1.65;;
22019;SDS011;51298;53.362;-1.518;2023-07-20T14:40:51;4.00;;;1.80;;
22019;SDS011;51298;53.362;-1.518;2023-07-20T14:43:35;8.32;;;1.52;;
22019;SDS011;51298;53.362;-1.518;2023-07-20T14:46:20;2.42;;;1.50;;
22019;SDS011;51298;53.362;-1.518;2023-07-20T14:49:04;3.47;;;1.75;;
22019;SDS011;51298;53.362;-1.518;2023-07-20T14:51:48;4.68;;;1.70;;
22019;SDS011;51298;53.362;-1.518;2023-07-20T14:54:33;15.25;;;2.15;;
22019;SDS011;51298;53.362;-1.518;2023-07-20T14:57:17;4.30;;;2.03;;
22019;SDS011;51298;53.362;-1.518;2023-07-20T15:00:02;3.78;;;1.50;;
22019;SDS011;51298;53.362;-1.518;2023-07-20T15:02:51;5.28;;;1.90;;
22019;SDS011;51298;53.362;-1.518;2023-07-20T15:05:39;3.80;;;1.90;;
22019;SDS011;51298;53.362;-1.518;2023-07-20T15:08:24;3.25;;;1.80;;
22019;SDS011;51298;53.362;-1.518;2023-07-20T15:11:08;2.88;;;1.50;;
22019;SDS011;51298;53.362;-1.518;2023-07-20T15:13:52;2.60;;;1.65;;
22019;SDS011;51298;53.362;-1.518;2023-07-20T15:16:37;1.98;;;1.20;;
22019;SDS011;51298;53.362;-1.518;2023-07-20T15:19:21;4.05;;;1.90;;
22019;SDS011;51298;53.362;-1.518;2023-07-20T15:22:05;4.07;;;2.38;;
22019;SDS011;51298;53.362;-1.518;2023-07-20T15:24:50;2.97;;;1.52;;
22019;SDS011;51298;53.362;-1.518;2023-07-20T15:27:34;3.83;;;2.00;;
22019;SDS011;51298;53.362;-1.518;2023-07-20T15:30:19;3.30;;;1.70;;
22019;SDS011;51298;53.362;-1.518;2023-07-20T15:33:03;2.72;;;1.30;;
22019;SDS011;51298;53.362;-1.518;2023-07-20T15:35:47;2.50;;;1.30;;
22019;SDS011;51298;53.362;-1.518;2023-07-20T15:38:31;4.35;;;2.00;;
22019;SDS011;51298;53.362;-1.518;2023-07-20T15:41:15;2.70;;;1.50;;
22019;SDS011;51298;53.362;-1.518;2023-07-20T15:43:59;3.08;;;1.80;;
22019;SDS011;51298;53.362;-1.518;2023-07-20T15:46:44;6.20;;;1.70;;
22019;SDS011;51298;53.362;-1.518;2023-07-20T15:49:30;4.50;;;1.50;;
22019;SDS011;51298;53.362;-1.518;2023-07-20T15:52:14;3.05;;;1.73;;
22019;SDS011;51298;53.362;-1.518;2023-07-20T15:54:58;5.78;;;1.85;;
22019;SDS011;51298;53.362;-1.518;2023-07-20T15:57:42;4.85;;;1.60;;
22019;SDS011;51298;53.362;-1.518;2023-07-20T16:00:27;5.05;;;2.00;;
22019;SDS011;51298;53.362;-1.518;2023-07-20T16:03:11;2.88;;;1.60;;
22019;SDS011;51298;53.362;-1.518;2023-07-20T16:05:55;3.38;;;1.70;;
22019;SDS011;51298;53.362;-1.518;2023-07-20T16:08:39;3.60;;;1.95;;
22019;SDS011;51298;53.362;-1.518;2023-07-20T16:11:24;2.63;;;1.42;;
22019;SDS011;51298;53.362;-1.518;2023-07-20T16:14:08;2.75;;;1.55;;
22019;SDS011;51298;53.362;-1.518;2023-07-20T16:16:52;2.85;;;1.50;;
22019;SDS011;51298;53.362;-1.518;2023-07-20T16:19:36;3.13;;;1.70;;
22019;SDS011;51298;53.362;-1.518;2023-07-20T16:22:20;5.22;;;1.85;;
22019;SDS011;51298;53.362;-1.518;2023-07-20T16:25:04;2.75;;;1.27;;
22019;SDS011;51298;53.362;-1.518;2023-07-20T16:27:49;4.13;;;1.95;;
22019;SDS011;51298;53.362;-1.518;2023-07-20T16:30:33;3.10;;;1.63;;
22019;SDS011;51298;53.362;-1.518;2023-07-20T16:33:18;4.72;;;1.55;;
22019;SDS011;51298;53.362;-1.518;2023-07-20T16:36:11;2.13;;;1.13;;
22019;SDS011;51298;53.362;-1.518;2023-07-20T16:38:56;5.05;;;1.90;;
22019;SDS011;51298;53.362;-1.518;2023-07-20T16:41:41;2.95;;;1.40;;